Terminal Aerodrome Forecast
Issued by NWS

Home | Current Version | Previous Version | Text Only | Print | Product List | Glossary On
Versions: 1 2 3 4 5 6 7 8 9 10 11 12 13
059
FTUS43 KLSX 251140
TAFSUS
TAF
KSUS 251140Z 2512/2612 18007KT P6SM -SHRA VCTS BKN060CB
     FM251700 18010G18KT P6SM SCT040 BKN250
      TEMPO 2521/2524 4SM TSRA BKN040CB
     FM260100 18008KT P6SM BKN050=

USA.gov is the U.S. government's official web portal to all federal, state and local government web resources and services.